sensor_id;sensor_type;location;lat;lon;timestamp;temperature;humidity
42147;DHT22;27815;43.410;11.852;2024-01-07T00:16:28;10.60;81.20
42147;DHT22;27815;43.410;11.852;2024-01-07T00:22:26;10.60;81.10
42147;DHT22;27815;43.410;11.852;2024-01-07T00:29:08;10.60;81.00
42147;DHT22;27815;43.410;11.852;2024-01-07T00:40:55;10.70;80.80
42147;DHT22;27815;43.410;11.852;2024-01-07T00:46:40;10.60;80.60
42147;DHT22;27815;43.410;11.852;2024-01-07T00:58:09;10.60;80.40
42147;DHT22;27815;43.410;11.852;2024-01-07T01:11:01;10.50;80.30
42147;DHT22;27815;43.410;11.852;2024-01-07T01:21:53;10.40;80.20
42147;DHT22;27815;43.410;11.852;2024-01-07T01:44:41;10.10;80.40
42147;DHT22;27815;43.410;11.852;2024-01-07T01:57:24;10.00;80.60
42147;DHT22;27815;43.410;11.852;2024-01-07T02:25:24;10.00;80.60
42147;DHT22;27815;43.410;11.852;2024-01-07T02:31:42;9.90;80.70
42147;DHT22;27815;43.410;11.852;2024-01-07T02:43:56;9.80;80.80
42147;DHT22;27815;43.410;11.852;2024-01-07T02:50:13;9.80;80.80
42147;DHT22;27815;43.410;11.852;2024-01-07T03:12:04;9.70;81.00
42147;DHT22;27815;43.410;11.852;2024-01-07T03:29:48;9.70;80.90
42147;DHT22;27815;43.410;11.852;2024-01-07T03:46:26;9.60;81.10
42147;DHT22;27815;43.410;11.852;2024-01-07T03:52:34;9.60;81.10
42147;DHT22;27815;43.410;11.852;2024-01-07T03:58:44;9.60;81.20
42147;DHT22;27815;43.410;11.852;2024-01-07T04:04:48;9.60;81.20
42147;DHT22;27815;43.410;11.852;2024-01-07T04:11:01;9.50;81.40
42147;DHT22;27815;43.410;11.852;2024-01-07T04:22:50;9.50;81.50
42147;DHT22;27815;43.410;11.852;2024-01-07T04:33:43;9.50;81.40
42147;DHT22;27815;43.410;11.852;2024-01-07T04:45:16;9.50;81.50
42147;DHT22;27815;43.410;11.852;2024-01-07T04:51:35;9.50;81.40
42147;DHT22;27815;43.410;11.852;2024-01-07T05:03:22;9.40;81.50
42147;DHT22;27815;43.410;11.852;2024-01-07T05:08:42;9.40;81.60
42147;DHT22;27815;43.410;11.852;2024-01-07T05:14:16;9.40;81.50
42147;DHT22;27815;43.410;11.852;2024-01-07T05:19:55;9.40;81.60
42147;DHT22;27815;43.410;11.852;2024-01-07T05:24:55;9.40;81.50
42147;DHT22;27815;43.410;11.852;2024-01-07T05:49:01;9.30;81.60
42147;DHT22;27815;43.410;11.852;2024-01-07T06:00:50;9.30;81.60
42147;DHT22;27815;43.410;11.852;2024-01-07T06:07:02;9.30;81.70
42147;DHT22;27815;43.410;11.852;2024-01-07T06:12:35;9.30;81.70
42147;DHT22;27815;43.410;11.852;2024-01-07T06:17:35;9.20;81.80
42147;DHT22;27815;43.410;11.852;2024-01-07T06:22:15;9.10;81.90
42147;DHT22;27815;43.410;11.852;2024-01-07T06:27:49;9.10;82.00
42147;DHT22;27815;43.410;11.852;2024-01-07T06:38:01;9.00;82.20
42147;DHT22;27815;43.410;11.852;2024-01-07T06:42:11;9.10;82.20
42147;DHT22;27815;43.410;11.852;2024-01-07T06:46:18;9.00;82.20
42147;DHT22;27815;43.410;11.852;2024-01-07T06:50:55;9.10;82.20
42147;DHT22;27815;43.410;11.852;2024-01-07T06:57:20;9.20;82.20
42147;DHT22;27815;43.410;11.852;2024-01-07T07:02:20;9.10;82.20
42147;DHT22;27815;43.410;11.852;2024-01-07T07:06:26;9.10;82.10
42147;DHT22;27815;43.410;11.852;2024-01-07T07:10:53;9.20;82.10
42147;DHT22;27815;43.410;11.852;2024-01-07T07:14:57;9.20;82.00
42147;DHT22;27815;43.410;11.852;2024-01-07T07:19:02;9.20;81.90
42147;DHT22;27815;43.410;11.852;2024-01-07T07:23:14;9.30;81.90
42147;DHT22;27815;43.410;11.852;2024-01-07T07:28:10;9.30;81.80
42147;DHT22;27815;43.410;11.852;2024-01-07T07:32:33;9.20;81.90
42147;DHT22;27815;43.410;11.852;2024-01-07T07:37:03;9.20;81.90
42147;DHT22;27815;43.410;11.852;2024-01-07T07:41:12;9.30;81.80
42147;DHT22;27815;43.410;11.852;2024-01-07T07:45:53;9.30;81.70
42147;DHT22;27815;43.410;11.852;2024-01-07T07:54:46;9.40;81.50
42147;DHT22;27815;43.410;11.852;2024-01-07T07:59:03;9.40;81.30
42147;DHT22;27815;43.410;11.852;2024-01-07T08:03:12;9.40;81.30
42147;DHT22;27815;43.410;11.852;2024-01-07T08:07:15;9.50;81.10
42147;DHT22;27815;43.410;11.852;2024-01-07T08:11:19;9.50;81.00
42147;DHT22;27815;43.410;11.852;2024-01-07T08:15:22;9.50;80.90
42147;DHT22;27815;43.410;11.852;2024-01-07T08:19:25;9.50;80.80
42147;DHT22;27815;43.410;11.852;2024-01-07T08:23:28;9.50;80.70
42147;DHT22;27815;43.410;11.852;2024-01-07T08:27:31;9.50;80.60
42147;DHT22;27815;43.410;11.852;2024-01-07T08:31:35;9.50;80.50
42147;DHT22;27815;43.410;11.852;2024-01-07T08:35:38;9.40;80.40
42147;DHT22;27815;43.410;11.852;2024-01-07T08:39:42;9.50;80.40
42147;DHT22;27815;43.410;11.852;2024-01-07T08:43:45;9.40;80.40
42147;DHT22;27815;43.410;11.852;2024-01-07T08:47:48;9.30;80.40
42147;DHT22;27815;43.410;11.852;2024-01-07T08:52:02;9.30;80.40
42147;DHT22;27815;43.410;11.852;2024-01-07T08:56:26;9.30;80.40
42147;DHT22;27815;43.410;11.852;2024-01-07T09:00:30;9.20;80.40
42147;DHT22;27815;43.410;11.852;2024-01-07T09:04:34;9.20;80.40
42147;DHT22;27815;43.410;11.852;2024-01-07T09:08:37;9.20;80.40
42147;DHT22;27815;43.410;11.852;2024-01-07T09:12:40;9.20;80.40
42147;DHT22;27815;43.410;11.852;2024-01-07T09:16:43;9.20;80.40
42147;DHT22;27815;43.410;11.852;2024-01-07T09:20:46;9.10;80.40
42147;DHT22;27815;43.410;11.852;2024-01-07T09:24:49;9.10;80.40
42147;DHT22;27815;43.410;11.852;2024-01-07T09:28:56;9.10;80.50
42147;DHT22;27815;43.410;11.852;2024-01-07T09:32:59;9.10;80.50
42147;DHT22;27815;43.410;11.852;2024-01-07T09:37:02;9.10;80.60
42147;DHT22;27815;43.410;11.852;2024-01-07T09:41:05;9.10;80.60
42147;DHT22;27815;43.410;11.852;2024-01-07T09:45:12;9.00;80.60
42147;DHT22;27815;43.410;11.852;2024-01-07T09:49:15;9.10;80.70
42147;DHT22;27815;43.410;11.852;2024-01-07T09:53:20;9.10;80.70
42147;DHT22;27815;43.410;11.852;2024-01-07T09:57:25;9.10;80.70
42147;DHT22;27815;43.410;11.852;2024-01-07T10:01:28;9.10;80.70
42147;DHT22;27815;43.410;11.852;2024-01-07T10:05:32;9.00;80.90
42147;DHT22;27815;43.410;11.852;2024-01-07T10:09:35;9.00;81.00
42147;DHT22;27815;43.410;11.852;2024-01-07T10:13:38;9.00;80.90
42147;DHT22;27815;43.410;11.852;2024-01-07T10:17:42;9.10;80.90
42147;DHT22;27815;43.410;11.852;2024-01-07T10:21:45;9.10;80.90
42147;DHT22;27815;43.410;11.852;2024-01-07T10:25:48;9.10;80.80
42147;DHT22;27815;43.410;11.852;2024-01-07T10:29:51;9.10;80.80
42147;DHT22;27815;43.410;11.852;2024-01-07T10:33:58;9.10;80.80
42147;DHT22;27815;43.410;11.852;2024-01-07T10:38:02;9.10;80.80
42147;DHT22;27815;43.410;11.852;2024-01-07T10:42:05;9.10;80.80
42147;DHT22;27815;43.410;11.852;2024-01-07T10:46:09;9.10;80.80
42147;DHT22;27815;43.410;11.852;2024-01-07T10:50:14;9.10;80.80
42147;DHT22;27815;43.410;11.852;2024-01-07T10:54:19;9.10;80.80
42147;DHT22;27815;43.410;11.852;2024-01-07T10:58:24;9.20;80.80
42147;DHT22;27815;43.410;11.852;2024-01-07T11:02:46;9.10;80.80
42147;DHT22;27815;43.410;11.852;2024-01-07T11:11:35;9.00;81.10
42147;DHT22;27815;43.410;11.852;2024-01-07T11:19:54;9.00;81.00
42147;DHT22;27815;43.410;11.852;2024-01-07T11:24:02;9.10;81.10
42147;DHT22;27815;43.410;11.852;2024-01-07T11:28:05;9.10;81.10
42147;DHT22;27815;43.410;11.852;2024-01-07T11:32:09;9.10;81.10
42147;DHT22;27815;43.410;11.852;2024-01-07T11:36:18;9.10;81.10
42147;DHT22;27815;43.410;11.852;2024-01-07T11:40:21;9.10;81.10
42147;DHT22;27815;43.410;11.852;2024-01-07T11:44:24;9.10;81.20
42147;DHT22;27815;43.410;11.852;2024-01-07T11:48:27;9.10;81.30
42147;DHT22;27815;43.410;11.852;2024-01-07T11:52:32;9.20;81.30
42147;DHT22;27815;43.410;11.852;2024-01-07T11:56:39;9.20;81.30
42147;DHT22;27815;43.410;11.852;2024-01-07T12:00:42;9.20;81.30
42147;DHT22;27815;43.410;11.852;2024-01-07T12:04:45;9.10;81.40
42147;DHT22;27815;43.410;11.852;2024-01-07T12:08:48;9.10;81.40
42147;DHT22;27815;43.410;11.852;2024-01-07T12:12:52;9.10;81.50
42147;DHT22;27815;43.410;11.852;2024-01-07T12:16:55;9.10;81.50
42147;DHT22;27815;43.410;11.852;2024-01-07T12:21:01;9.00;81.50
42147;DHT22;27815;43.410;11.852;2024-01-07T12:25:08;9.00;81.50
42147;DHT22;27815;43.410;11.852;2024-01-07T12:29:19;9.00;81.50
42147;DHT22;27815;43.410;11.852;2024-01-07T12:33:26;9.00;81.50
42147;DHT22;27815;43.410;11.852;2024-01-07T12:37:32;8.90;81.60
42147;DHT22;27815;43.410;11.852;2024-01-07T12:41:46;8.90;81.60
42147;DHT22;27815;43.410;11.852;2024-01-07T12:45:59;8.90;81.70
42147;DHT22;27815;43.410;11.852;2024-01-07T12:50:09;8.80;81.60
42147;DHT22;27815;43.410;11.852;2024-01-07T12:54:15;8.80;81.60
42147;DHT22;27815;43.410;11.852;2024-01-07T12:58:20;8.80;81.70
42147;DHT22;27815;43.410;11.852;2024-01-07T13:02:24;8.90;81.80
42147;DHT22;27815;43.410;11.852;2024-01-07T13:06:27;8.90;81.80
42147;DHT22;27815;43.410;11.852;2024-01-07T13:10:30;9.00;81.80
42147;DHT22;27815;43.410;11.852;2024-01-07T13:14:33;9.00;81.80
42147;DHT22;27815;43.410;11.852;2024-01-07T13:18:36;9.10;81.80
42147;DHT22;27815;43.410;11.852;2024-01-07T13:22:40;9.10;81.80
42147;DHT22;27815;43.410;11.852;2024-01-07T13:26:43;9.10;81.80
42147;DHT22;27815;43.410;11.852;2024-01-07T13:30:46;9.10;81.70
42147;DHT22;27815;43.410;11.852;2024-01-07T13:34:56;9.10;81.70
42147;DHT22;27815;43.410;11.852;2024-01-07T13:38:59;9.10;81.70
42147;DHT22;27815;43.410;11.852;2024-01-07T13:43:16;9.10;81.70
42147;DHT22;27815;43.410;11.852;2024-01-07T13:47:28;9.00;81.60
42147;DHT22;27815;43.410;11.852;2024-01-07T13:51:51;9.00;81.70
42147;DHT22;27815;43.410;11.852;2024-01-07T13:55:56;9.00;81.70
42147;DHT22;27815;43.410;11.852;2024-01-07T14:00:06;9.00;81.70
42147;DHT22;27815;43.410;11.852;2024-01-07T14:04:12;9.00;81.70
42147;DHT22;27815;43.410;11.852;2024-01-07T14:08:16;9.00;81.80
42147;DHT22;27815;43.410;11.852;2024-01-07T14:12:19;9.00;81.80
42147;DHT22;27815;43.410;11.852;2024-01-07T14:16:23;8.90;81.80
42147;DHT22;27815;43.410;11.852;2024-01-07T14:20:27;9.00;81.90
42147;DHT22;27815;43.410;11.852;2024-01-07T14:24:31;9.00;81.80
42147;DHT22;27815;43.410;11.852;2024-01-07T14:28:34;9.00;81.80
42147;DHT22;27815;43.410;11.852;2024-01-07T14:32:41;9.10;81.90
42147;DHT22;27815;43.410;11.852;2024-01-07T14:36:44;9.10;81.80
42147;DHT22;27815;43.410;11.852;2024-01-07T14:40:48;9.10;81.80
42147;DHT22;27815;43.410;11.852;2024-01-07T14:44:53;9.10;81.70
42147;DHT22;27815;43.410;11.852;2024-01-07T14:48:56;9.10;81.70
42147;DHT22;27815;43.410;11.852;2024-01-07T14:53:00;9.20;81.70
42147;DHT22;27815;43.410;11.852;2024-01-07T14:57:03;9.20;81.60
42147;DHT22;27815;43.410;11.852;2024-01-07T15:01:07;9.20;81.60
42147;DHT22;27815;43.410;11.852;2024-01-07T15:05:10;9.20;81.60
42147;DHT22;27815;43.410;11.852;2024-01-07T15:09:16;9.30;81.50
42147;DHT22;27815;43.410;11.852;2024-01-07T15:13:24;9.30;81.40
42147;DHT22;27815;43.410;11.852;2024-01-07T15:17:37;9.30;81.40
42147;DHT22;27815;43.410;11.852;2024-01-07T15:21:42;9.30;81.40
42147;DHT22;27815;43.410;11.852;2024-01-07T15:26:10;9.30;81.30
42147;DHT22;27815;43.410;11.852;2024-01-07T15:30:49;9.30;81.20
42147;DHT22;27815;43.410;11.852;2024-01-07T15:35:08;9.40;81.30
42147;DHT22;27815;43.410;11.852;2024-01-07T15:39:19;9.40;81.20
42147;DHT22;27815;43.410;11.852;2024-01-07T15:43:24;9.40;81.20
42147;DHT22;27815;43.410;11.852;2024-01-07T15:47:28;9.40;81.10
42147;DHT22;27815;43.410;11.852;2024-01-07T15:51:31;9.50;81.10
42147;DHT22;27815;43.410;11.852;2024-01-07T15:55:36;9.50;81.10
42147;DHT22;27815;43.410;11.852;2024-01-07T15:59:45;9.50;81.00
42147;DHT22;27815;43.410;11.852;2024-01-07T16:03:48;9.50;81.00
42147;DHT22;27815;43.410;11.852;2024-01-07T16:07:57;9.50;80.90
42147;DHT22;27815;43.410;11.852;2024-01-07T16:12:03;9.40;80.90
42147;DHT22;27815;43.410;11.852;2024-01-07T16:16:16;9.40;80.90
42147;DHT22;27815;43.410;11.852;2024-01-07T16:20:24;9.40;80.90
42147;DHT22;27815;43.410;11.852;2024-01-07T16:24:32;9.50;80.90
42147;DHT22;27815;43.410;11.852;2024-01-07T16:29:09;9.50;80.90
42147;DHT22;27815;43.410;11.852;2024-01-07T16:33:32;9.50;80.70
42147;DHT22;27815;43.410;11.852;2024-01-07T16:37:51;9.50;80.70
42147;DHT22;27815;43.410;11.852;2024-01-07T16:41:57;9.40;80.70
42147;DHT22;27815;43.410;11.852;2024-01-07T16:46:01;9.50;80.70
42147;DHT22;27815;43.410;11.852;2024-01-07T16:50:08;9.50;80.70
42147;DHT22;27815;43.410;11.852;2024-01-07T16:54:28;9.60;80.60
42147;DHT22;27815;43.410;11.852;2024-01-07T16:58:31;9.50;80.50
42147;DHT22;27815;43.410;11.852;2024-01-07T17:02:35;9.60;80.50
42147;DHT22;27815;43.410;11.852;2024-01-07T17:06:38;9.60;80.40
42147;DHT22;27815;43.410;11.852;2024-01-07T17:10:45;9.70;80.30
42147;DHT22;27815;43.410;11.852;2024-01-07T17:14:56;9.70;80.10
42147;DHT22;27815;43.410;11.852;2024-01-07T17:19:00;9.80;80.00
42147;DHT22;27815;43.410;11.852;2024-01-07T17:23:33;9.80;79.90
42147;DHT22;27815;43.410;11.852;2024-01-07T17:27:47;9.90;79.80
42147;DHT22;27815;43.410;11.852;2024-01-07T17:32:23;9.90;79.70
42147;DHT22;27815;43.410;11.852;2024-01-07T17:36:42;10.00;79.50
42147;DHT22;27815;43.410;11.852;2024-01-07T17:40:48;10.00;79.50
42147;DHT22;27815;43.410;11.852;2024-01-07T17:45:04;10.00;79.40
42147;DHT22;27815;43.410;11.852;2024-01-07T17:49:18;10.00;79.10
42147;DHT22;27815;43.410;11.852;2024-01-07T17:53:50;10.00;79.10
42147;DHT22;27815;43.410;11.852;2024-01-07T17:58:05;10.10;79.00
42147;DHT22;27815;43.410;11.852;2024-01-07T18:02:26;10.10;79.00
42147;DHT22;27815;43.410;11.852;2024-01-07T18:06:32;10.00;78.80
42147;DHT22;27815;43.410;11.852;2024-01-07T18:10:38;10.00;78.70
42147;DHT22;27815;43.410;11.852;2024-01-07T18:14:48;10.00;78.60
42147;DHT22;27815;43.410;11.852;2024-01-07T18:18:53;9.90;78.50
42147;DHT22;27815;43.410;11.852;2024-01-07T18:23:01;9.90;78.40
42147;DHT22;27815;43.410;11.852;2024-01-07T18:27:08;9.90;78.40
42147;DHT22;27815;43.410;11.852;2024-01-07T18:31:17;9.90;78.40
42147;DHT22;27815;43.410;11.852;2024-01-07T18:36:10;9.90;78.30
42147;DHT22;27815;43.410;11.852;2024-01-07T18:40:48;9.90;78.20
42147;DHT22;27815;43.410;11.852;2024-01-07T18:45:28;9.90;78.30
42147;DHT22;27815;43.410;11.852;2024-01-07T18:49:38;9.90;78.30
42147;DHT22;27815;43.410;11.852;2024-01-07T18:53:49;9.80;78.30
42147;DHT22;27815;43.410;11.852;2024-01-07T18:58:07;9.80;78.30
42147;DHT22;27815;43.410;11.852;2024-01-07T19:19:51;9.90;78.30
42147;DHT22;27815;43.410;11.852;2024-01-07T19:29:44;9.90;78.10
42147;DHT22;27815;43.410;11.852;2024-01-07T19:33:47;9.90;78.10
42147;DHT22;27815;43.410;11.852;2024-01-07T19:37:53;9.90;78.10
42147;DHT22;27815;43.410;11.852;2024-01-07T19:41:56;10.00;78.00
42147;DHT22;27815;43.410;11.852;2024-01-07T19:46:32;10.00;77.90
42147;DHT22;27815;43.410;11.852;2024-01-07T19:51:46;10.00;77.80
42147;DHT22;27815;43.410;11.852;2024-01-07T19:56:17;10.00;77.70
42147;DHT22;27815;43.410;11.852;2024-01-07T20:00:29;10.00;77.70
42147;DHT22;27815;43.410;11.852;2024-01-07T20:04:37;10.00;77.60
42147;DHT22;27815;43.410;11.852;2024-01-07T20:08:46;10.10;77.60
42147;DHT22;27815;43.410;11.852;2024-01-07T20:12:54;10.10;77.20
42147;DHT22;27815;43.410;11.852;2024-01-07T20:17:07;10.10;76.80
42147;DHT22;27815;43.410;11.852;2024-01-07T20:21:49;10.10;76.70
42147;DHT22;27815;43.410;11.852;2024-01-07T20:25:55;10.10;76.50
42147;DHT22;27815;43.410;11.852;2024-01-07T20:30:55;10.00;76.50
42147;DHT22;27815;43.410;11.852;2024-01-07T20:36:12;10.00;76.40
42147;DHT22;27815;43.410;11.852;2024-01-07T20:55:59;10.00;76.40
42147;DHT22;27815;43.410;11.852;2024-01-07T21:00:24;10.00;76.50
42147;DHT22;27815;43.410;11.852;2024-01-07T21:10:31;9.90;76.30
42147;DHT22;27815;43.410;11.852;2024-01-07T21:20:29;9.90;76.30
42147;DHT22;27815;43.410;11.852;2024-01-07T21:24:38;9.90;76.40
42147;DHT22;27815;43.410;11.852;2024-01-07T21:28:41;9.90;76.50
42147;DHT22;27815;43.410;11.852;2024-01-07T21:32:45;9.90;76.50
42147;DHT22;27815;43.410;11.852;2024-01-07T21:36:48;10.00;76.50
42147;DHT22;27815;43.410;11.852;2024-01-07T21:40:55;9.90;76.50
42147;DHT22;27815;43.410;11.852;2024-01-07T21:45:05;9.90;76.60
42147;DHT22;27815;43.410;11.852;2024-01-07T21:49:48;9.90;76.70
42147;DHT22;27815;43.410;11.852;2024-01-07T21:53:59;9.90;76.90
42147;DHT22;27815;43.410;11.852;2024-01-07T21:59:26;9.90;76.90
42147;DHT22;27815;43.410;11.852;2024-01-07T22:03:38;9.90;77.10
42147;DHT22;27815;43.410;11.852;2024-01-07T22:08:08;9.90;77.20
42147;DHT22;27815;43.410;11.852;2024-01-07T22:12:20;9.90;77.20
42147;DHT22;27815;43.410;11.852;2024-01-07T22:16:33;9.90;77.10
42147;DHT22;27815;43.410;11.852;2024-01-07T22:20:53;9.80;77.10
42147;DHT22;27815;43.410;11.852;2024-01-07T22:24:56;9.80;77.10
42147;DHT22;27815;43.410;11.852;2024-01-07T22:29:02;9.80;76.90
42147;DHT22;27815;43.410;11.852;2024-01-07T22:33:29;9.80;76.90
42147;DHT22;27815;43.410;11.852;2024-01-07T22:37:52;9.90;76.90
42147;DHT22;27815;43.410;11.852;2024-01-07T22:41:59;9.90;76.90
42147;DHT22;27815;43.410;11.852;2024-01-07T22:46:06;9.90;76.90
42147;DHT22;27815;43.410;11.852;2024-01-07T22:50:12;9.90;76.90
42147;DHT22;27815;43.410;11.852;2024-01-07T22:54:24;9.90;76.60
42147;DHT22;27815;43.410;11.852;2024-01-07T22:58:32;9.90;76.70
42147;DHT22;27815;43.410;11.852;2024-01-07T23:02:36;9.90;76.70
42147;DHT22;27815;43.410;11.852;2024-01-07T23:06:45;9.90;76.70
42147;DHT22;27815;43.410;11.852;2024-01-07T23:11:11;9.90;76.70
42147;DHT22;27815;43.410;11.852;2024-01-07T23:15:27;9.90;76.60
42147;DHT22;27815;43.410;11.852;2024-01-07T23:19:36;9.90;76.70
42147;DHT22;27815;43.410;11.852;2024-01-07T23:23:39;9.90;76.70
42147;DHT22;27815;43.410;11.852;2024-01-07T23:27:45;9.90;76.70
42147;DHT22;27815;43.410;11.852;2024-01-07T23:31:49;9.90;76.70
42147;DHT22;27815;43.410;11.852;2024-01-07T23:35:57;9.90;76.70
42147;DHT22;27815;43.410;11.852;2024-01-07T23:40:10;9.90;76.70
42147;DHT22;27815;43.410;11.852;2024-01-07T23:44:26;9.90;76.70
42147;DHT22;27815;43.410;11.852;2024-01-07T23:48:32;9.90;76.70
42147;DHT22;27815;43.410;11.852;2024-01-07T23:52:39;9.90;76.60
42147;DHT22;27815;43.410;11.852;2024-01-07T23:56:46;10.00;76.60
